sensor_id;sensor_type;location;lat;lon;timestamp;noise_LAeq;noise_LA_min;noise_LA_max;noise_LA01;noise_LA95
60031;Laerm;45901;47.600;9.890;2023-04-21T00:00:24;41.43;37.88;61.30;;
60031;Laerm;45901;47.600;9.890;2023-04-21T00:02:51;40.91;38.05;60.53;;
60031;Laerm;45901;47.600;9.890;2023-04-21T00:05:20;40.82;38.05;60.97;;
60031;Laerm;45901;47.600;9.890;2023-04-21T00:07:47;41.19;37.87;60.70;;
60031;Laerm;45901;47.600;9.890;2023-04-21T00:10:14;40.82;37.70;60.55;;
60031;Laerm;45901;47.600;9.890;2023-04-21T00:12:42;40.64;38.21;60.00;;
60031;Laerm;45901;47.600;9.890;2023-04-21T00:15:10;41.05;37.52;61.18;;
60031;Laerm;45901;47.600;9.890;2023-04-21T00:17:37;41.12;37.88;61.92;;
60031;Laerm;45901;47.600;9.890;2023-04-21T00:20:07;42.24;38.05;62.07;;
60031;Laerm;45901;47.600;9.890;2023-04-21T00:22:36;41.22;37.88;61.96;;
60031;Laerm;45901;47.600;9.890;2023-04-21T00:25:05;40.37;37.70;60.27;;
60031;Laerm;45901;47.600;9.890;2023-04-21T00:27:33;40.22;37.12;58.97;;
60031;Laerm;45901;47.600;9.890;2023-04-21T00:30:01;40.08;37.88;42.76;;
60031;Laerm;45901;47.600;9.890;2023-04-21T00:32:28;40.14;37.52;42.93;;
60031;Laerm;45901;47.600;9.890;2023-04-21T00:34:55;40.19;38.05;42.76;;
60031;Laerm;45901;47.600;9.890;2023-04-21T00:37:23;40.14;37.52;41.75;;
60031;Laerm;45901;47.600;9.890;2023-04-21T00:39:52;40.17;37.88;41.75;;
60031;Laerm;45901;47.600;9.890;2023-04-21T00:42:19;40.15;37.70;42.41;;
60031;Laerm;45901;47.600;9.890;2023-04-21T00:44:47;40.11;37.88;41.89;;
60031;Laerm;45901;47.600;9.890;2023-04-21T00:47:14;40.22;37.88;43.04;;
60031;Laerm;45901;47.600;9.890;2023-04-21T00:49:42;40.23;38.05;41.82;;
60031;Laerm;45901;47.600;9.890;2023-04-21T00:52:09;40.10;37.70;42.22;;
60031;Laerm;45901;47.600;9.890;2023-04-21T00:54:39;40.03;38.05;41.68;;
60031;Laerm;45901;47.600;9.890;2023-04-21T00:57:08;40.03;37.52;42.03;;
60031;Laerm;45901;47.600;9.890;2023-04-21T00:59:37;40.00;37.52;42.03;;
60031;Laerm;45901;47.600;9.890;2023-04-21T01:02:04;40.20;38.05;44.31;;
60031;Laerm;45901;47.600;9.890;2023-04-21T01:04:32;40.11;37.12;42.65;;
60031;Laerm;45901;47.600;9.890;2023-04-21T01:07:04;40.07;37.88;41.75;;
60031;Laerm;45901;47.600;9.890;2023-04-21T01:09:33;40.05;37.88;41.96;;
60031;Laerm;45901;47.600;9.890;2023-04-21T01:12:02;40.09;37.52;41.96;;
60031;Laerm;45901;47.600;9.890;2023-04-21T01:14:31;40.09;38.21;41.96;;
60031;Laerm;45901;47.600;9.890;2023-04-21T01:16:58;40.14;37.88;42.65;;
60031;Laerm;45901;47.600;9.890;2023-04-21T01:19:32;40.19;38.05;44.35;;
60031;Laerm;45901;47.600;9.890;2023-04-21T01:22:02;40.20;37.70;42.03;;
60031;Laerm;45901;47.600;9.890;2023-04-21T01:24:37;40.14;37.70;42.09;;
60031;Laerm;45901;47.600;9.890;2023-04-21T01:27:09;40.19;37.70;42.41;;
60031;Laerm;45901;47.600;9.890;2023-04-21T01:29:38;40.22;38.05;42.03;;
60031;Laerm;45901;47.600;9.890;2023-04-21T01:32:12;40.21;38.05;42.82;;
60031;Laerm;45901;47.600;9.890;2023-04-21T01:34:40;40.09;37.88;41.96;;
60031;Laerm;45901;47.600;9.890;2023-04-21T01:37:10;40.19;37.52;42.71;;
60031;Laerm;45901;47.600;9.890;2023-04-21T01:39:38;40.21;38.05;41.82;;
60031;Laerm;45901;47.600;9.890;2023-04-21T01:42:06;40.22;38.05;42.71;;
60031;Laerm;45901;47.600;9.890;2023-04-21T01:44:35;40.17;37.88;43.44;;
60031;Laerm;45901;47.600;9.890;2023-04-21T01:47:03;40.26;38.05;42.76;;
60031;Laerm;45901;47.600;9.890;2023-04-21T01:49:30;40.26;38.21;42.35;;
60031;Laerm;45901;47.600;9.890;2023-04-21T01:51:58;40.22;38.05;42.59;;
60031;Laerm;45901;47.600;9.890;2023-04-21T01:54:27;40.13;37.88;43.24;;
60031;Laerm;45901;47.600;9.890;2023-04-21T01:56:54;40.07;37.70;42.41;;
60031;Laerm;45901;47.600;9.890;2023-04-21T01:59:22;40.03;37.70;41.82;;
60031;Laerm;45901;47.600;9.890;2023-04-21T02:01:50;40.23;37.70;43.04;;
60031;Laerm;45901;47.600;9.890;2023-04-21T02:04:17;40.12;37.88;42.22;;
60031;Laerm;45901;47.600;9.890;2023-04-21T02:06:45;40.18;38.21;42.16;;
60031;Laerm;45901;47.600;9.890;2023-04-21T02:09:12;40.14;38.05;42.82;;
60031;Laerm;45901;47.600;9.890;2023-04-21T02:11:42;40.17;37.88;41.68;;
60031;Laerm;45901;47.600;9.890;2023-04-21T02:14:09;40.39;38.05;42.03;;
60031;Laerm;45901;47.600;9.890;2023-04-21T02:16:37;40.49;38.37;43.09;;
60031;Laerm;45901;47.600;9.890;2023-04-21T02:19:04;41.53;38.67;65.68;;
60031;Laerm;45901;47.600;9.890;2023-04-21T02:21:32;42.05;39.92;45.69;;
60031;Laerm;45901;47.600;9.890;2023-04-21T02:23:59;41.66;39.46;44.65;;
60031;Laerm;45901;47.600;9.890;2023-04-21T02:26:27;41.90;38.52;45.01;;
60031;Laerm;45901;47.600;9.890;2023-04-21T02:28:56;42.45;38.37;52.44;;
60031;Laerm;45901;47.600;9.890;2023-04-21T02:31:23;40.39;37.88;43.29;;
60031;Laerm;45901;47.600;9.890;2023-04-21T02:33:51;40.33;38.52;42.98;;
60031;Laerm;45901;47.600;9.890;2023-04-21T02:36:19;40.32;38.21;42.22;;
60031;Laerm;45901;47.600;9.890;2023-04-21T02:38:47;40.34;37.88;42.09;;
60031;Laerm;45901;47.600;9.890;2023-04-21T02:41:14;40.25;38.21;42.41;;
60031;Laerm;45901;47.600;9.890;2023-04-21T02:43:42;40.34;38.21;42.88;;
60031;Laerm;45901;47.600;9.890;2023-04-21T02:46:10;40.37;38.21;42.53;;
60031;Laerm;45901;47.600;9.890;2023-04-21T02:48:38;41.09;38.21;66.35;;
60031;Laerm;45901;47.600;9.890;2023-04-21T02:51:11;40.20;38.05;42.59;;
60031;Laerm;45901;47.600;9.890;2023-04-21T02:53:39;40.17;37.88;42.47;;
60031;Laerm;45901;47.600;9.890;2023-04-21T02:56:07;40.15;38.05;42.03;;
60031;Laerm;45901;47.600;9.890;2023-04-21T02:58:34;41.64;38.05;66.02;;
60031;Laerm;45901;47.600;9.890;2023-04-21T03:01:02;40.78;37.70;64.31;;
60031;Laerm;45901;47.600;9.890;2023-04-21T03:03:33;42.49;37.88;66.34;;
60031;Laerm;45901;47.600;9.890;2023-04-21T03:06:03;41.57;38.05;65.32;;
60031;Laerm;45901;47.600;9.890;2023-04-21T03:08:30;40.95;37.88;61.85;;
60031;Laerm;45901;47.600;9.890;2023-04-21T03:10:59;41.12;37.88;61.78;;
60031;Laerm;45901;47.600;9.890;2023-04-21T03:13:26;40.84;38.05;61.62;;
60031;Laerm;45901;47.600;9.890;2023-04-21T03:15:54;40.90;38.05;61.78;;
60031;Laerm;45901;47.600;9.890;2023-04-21T03:18:22;41.15;38.21;62.21;;
60031;Laerm;45901;47.600;9.890;2023-04-21T03:20:51;41.45;37.70;62.55;;
60031;Laerm;45901;47.600;9.890;2023-04-21T03:23:19;41.06;37.88;61.94;;
60031;Laerm;45901;47.600;9.890;2023-04-21T03:25:46;40.84;38.21;60.37;;
60031;Laerm;45901;47.600;9.890;2023-04-21T03:28:14;41.07;37.88;62.14;;
60031;Laerm;45901;47.600;9.890;2023-04-21T03:30:41;41.24;38.05;63.18;;
60031;Laerm;45901;47.600;9.890;2023-04-21T03:33:09;41.42;37.88;64.46;;
60031;Laerm;45901;47.600;9.890;2023-04-21T03:35:36;41.17;37.88;62.85;;
60031;Laerm;45901;47.600;9.890;2023-04-21T03:38:05;40.15;37.88;42.09;;
60031;Laerm;45901;47.600;9.890;2023-04-21T03:40:32;40.21;38.02;44.15;;
60031;Laerm;45901;47.600;9.890;2023-04-21T03:43:00;40.36;37.70;42.22;;
60031;Laerm;45901;47.600;9.890;2023-04-21T03:45:27;40.41;38.37;43.42;;
60031;Laerm;45901;47.600;9.890;2023-04-21T03:47:55;40.39;38.05;43.44;;
60031;Laerm;45901;47.600;9.890;2023-04-21T03:50:22;40.37;38.21;42.93;;
60031;Laerm;45901;47.600;9.890;2023-04-21T03:52:50;40.66;38.05;47.22;;
60031;Laerm;45901;47.600;9.890;2023-04-21T03:55:19;40.66;38.05;47.76;;
60031;Laerm;45901;47.600;9.890;2023-04-21T03:57:46;40.55;38.05;46.97;;
60031;Laerm;45901;47.600;9.890;2023-04-21T04:00:14;40.37;38.05;42.53;;
60031;Laerm;45901;47.600;9.890;2023-04-21T04:02:42;40.44;38.21;42.65;;
60031;Laerm;45901;47.600;9.890;2023-04-21T04:05:09;40.31;38.02;41.96;;
60031;Laerm;45901;47.600;9.890;2023-04-21T04:07:37;40.27;38.05;45.01;;
60031;Laerm;45901;47.600;9.890;2023-04-21T04:10:05;40.19;38.21;41.75;;
60031;Laerm;45901;47.600;9.890;2023-04-21T04:12:34;40.35;38.37;43.44;;
60031;Laerm;45901;47.600;9.890;2023-04-21T04:15:01;40.32;37.70;42.76;;
60031;Laerm;45901;47.600;9.890;2023-04-21T04:17:28;40.25;37.88;43.29;;
60031;Laerm;45901;47.600;9.890;2023-04-21T04:19:56;40.25;37.88;43.81;;
60031;Laerm;45901;47.600;9.890;2023-04-21T04:22:23;40.22;37.88;43.39;;
60031;Laerm;45901;47.600;9.890;2023-04-21T04:24:51;40.10;38.05;43.29;;
60031;Laerm;45901;47.600;9.890;2023-04-21T04:27:18;40.08;38.05;43.29;;
60031;Laerm;45901;47.600;9.890;2023-04-21T04:29:47;40.27;38.05;46.55;;
60031;Laerm;45901;47.600;9.890;2023-04-21T04:32:14;40.12;38.05;46.93;;
60031;Laerm;45901;47.600;9.890;2023-04-21T04:34:42;40.07;37.88;43.77;;
60031;Laerm;45901;47.600;9.890;2023-04-21T04:37:10;40.12;37.70;41.89;;
60031;Laerm;45901;47.600;9.890;2023-04-21T04:39:38;40.04;38.21;43.14;;
60031;Laerm;45901;47.600;9.890;2023-04-21T04:42:06;40.06;37.52;43.49;;
60031;Laerm;45901;47.600;9.890;2023-04-21T04:44:35;40.29;38.05;43.04;;
60031;Laerm;45901;47.600;9.890;2023-04-21T04:47:04;40.38;38.52;44.47;;
60031;Laerm;45901;47.600;9.890;2023-04-21T04:49:32;40.34;38.21;42.53;;
60031;Laerm;45901;47.600;9.890;2023-04-21T04:52:00;40.26;37.88;42.59;;
60031;Laerm;45901;47.600;9.890;2023-04-21T04:54:27;40.20;37.88;42.16;;
60031;Laerm;45901;47.600;9.890;2023-04-21T04:56:55;39.99;37.70;42.03;;
60031;Laerm;45901;47.600;9.890;2023-04-21T04:59:23;39.99;37.32;43.37;;
60031;Laerm;45901;47.600;9.890;2023-04-21T05:01:51;40.18;37.52;44.19;;
60031;Laerm;45901;47.600;9.890;2023-04-21T05:04:19;40.03;37.70;42.59;;
60031;Laerm;45901;47.600;9.890;2023-04-21T05:06:47;40.11;37.52;42.59;;
60031;Laerm;45901;47.600;9.890;2023-04-21T05:09:14;40.08;37.52;42.47;;
60031;Laerm;45901;47.600;9.890;2023-04-21T05:11:42;40.01;37.32;41.82;;
60031;Laerm;45901;47.600;9.890;2023-04-21T05:14:09;40.27;38.21;42.53;;
60031;Laerm;45901;47.600;9.890;2023-04-21T05:16:37;39.97;37.52;43.90;;
60031;Laerm;45901;47.600;9.890;2023-04-21T05:19:04;40.03;37.32;42.35;;
60031;Laerm;45901;47.600;9.890;2023-04-21T05:21:33;39.98;37.52;42.82;;
60031;Laerm;45901;47.600;9.890;2023-04-21T05:24:01;39.99;37.70;42.53;;
60031;Laerm;45901;47.600;9.890;2023-04-21T05:26:28;40.07;37.88;43.14;;
60031;Laerm;45901;47.600;9.890;2023-04-21T05:28:57;40.11;37.88;43.81;;
60031;Laerm;45901;47.600;9.890;2023-04-21T05:31:25;40.12;37.88;44.54;;
60031;Laerm;45901;47.600;9.890;2023-04-21T05:33:52;40.29;37.88;42.59;;
60031;Laerm;45901;47.600;9.890;2023-04-21T05:36:20;40.90;38.37;42.76;;
60031;Laerm;45901;47.600;9.890;2023-04-21T05:38:51;40.88;38.52;44.97;;
60031;Laerm;45901;47.600;9.890;2023-04-21T05:41:19;40.50;38.37;44.76;;
60031;Laerm;45901;47.600;9.890;2023-04-21T05:43:47;40.28;38.05;45.23;;
60031;Laerm;45901;47.600;9.890;2023-04-21T05:46:14;40.32;37.88;48.21;;
60031;Laerm;45901;47.600;9.890;2023-04-21T05:48:42;40.08;38.05;43.09;;
60031;Laerm;45901;47.600;9.890;2023-04-21T05:51:10;40.58;37.88;63.11;;
60031;Laerm;45901;47.600;9.890;2023-04-21T05:53:39;40.42;38.18;64.51;;
60031;Laerm;45901;47.600;9.890;2023-04-21T05:56:09;40.10;37.88;41.82;;
60031;Laerm;45901;47.600;9.890;2023-04-21T05:58:36;40.06;37.70;42.29;;
60031;Laerm;45901;47.600;9.890;2023-04-21T06:01:04;40.29;37.52;43.29;;
60031;Laerm;45901;47.600;9.890;2023-04-21T06:03:32;40.04;37.88;42.47;;
60031;Laerm;45901;47.600;9.890;2023-04-21T06:06:01;40.05;37.88;42.35;;
60031;Laerm;45901;47.600;9.890;2023-04-21T06:08:29;40.60;37.32;42.65;;
60031;Laerm;45901;47.600;9.890;2023-04-21T06:10:56;40.31;38.05;42.22;;
60031;Laerm;45901;47.600;9.890;2023-04-21T06:13:25;40.32;38.21;43.04;;
60031;Laerm;45901;47.600;9.890;2023-04-21T06:15:53;40.29;37.88;43.19;;
60031;Laerm;45901;47.600;9.890;2023-04-21T06:18:20;40.22;38.05;42.35;;
60031;Laerm;45901;47.600;9.890;2023-04-21T06:20:52;40.31;38.05;42.71;;
60031;Laerm;45901;47.600;9.890;2023-04-21T06:23:20;40.41;38.37;42.88;;
60031;Laerm;45901;47.600;9.890;2023-04-21T06:25:59;40.33;38.05;41.96;;
60031;Laerm;45901;47.600;9.890;2023-04-21T06:28:30;40.28;38.05;42.03;;
60031;Laerm;45901;47.600;9.890;2023-04-21T06:30:58;40.42;38.52;42.88;;
60031;Laerm;45901;47.600;9.890;2023-04-21T06:33:26;40.37;38.21;42.24;;
60031;Laerm;45901;47.600;9.890;2023-04-21T06:35:53;40.41;37.88;42.47;;
60031;Laerm;45901;47.600;9.890;2023-04-21T06:38:21;40.58;38.52;43.29;;
60031;Laerm;45901;47.600;9.890;2023-04-21T06:40:49;40.78;38.21;50.51;;
60031;Laerm;45901;47.600;9.890;2023-04-21T06:43:16;40.46;38.21;44.69;;
60031;Laerm;45901;47.600;9.890;2023-04-21T06:45:45;40.50;38.21;43.99;;
60031;Laerm;45901;47.600;9.890;2023-04-21T06:48:13;40.59;37.88;42.53;;
60031;Laerm;45901;47.600;9.890;2023-04-21T06:50:40;40.49;38.37;42.88;;
60031;Laerm;45901;47.600;9.890;2023-04-21T06:53:09;40.49;38.21;45.14;;
60031;Laerm;45901;47.600;9.890;2023-04-21T06:55:37;40.48;38.18;44.35;;
60031;Laerm;45901;47.600;9.890;2023-04-21T06:58:04;40.53;38.05;42.30;;
60031;Laerm;45901;47.600;9.890;2023-04-21T07:00:32;40.86;38.05;43.99;;
60031;Laerm;45901;47.600;9.890;2023-04-21T07:03:00;40.51;37.88;43.09;;
60031;Laerm;45901;47.600;9.890;2023-04-21T07:05:28;40.55;37.88;43.39;;
60031;Laerm;45901;47.600;9.890;2023-04-21T07:07:56;40.53;38.05;42.29;;
60031;Laerm;45901;47.600;9.890;2023-04-21T07:10:25;40.65;38.52;43.94;;
60031;Laerm;45901;47.600;9.890;2023-04-21T07:12:53;40.78;38.52;45.17;;
60031;Laerm;45901;47.600;9.890;2023-04-21T07:15:20;40.70;37.88;45.33;;
60031;Laerm;45901;47.600;9.890;2023-04-21T07:17:48;40.73;38.21;47.18;;
60031;Laerm;45901;47.600;9.890;2023-04-21T07:20:17;40.75;38.05;42.71;;
60031;Laerm;45901;47.600;9.890;2023-04-21T07:22:44;40.70;38.52;42.41;;
60031;Laerm;45901;47.600;9.890;2023-04-21T07:25:12;40.68;38.05;42.71;;
60031;Laerm;45901;47.600;9.890;2023-04-21T07:27:39;40.63;38.37;43.19;;
60031;Laerm;45901;47.600;9.890;2023-04-21T07:30:11;40.44;37.88;42.65;;
60031;Laerm;45901;47.600;9.890;2023-04-21T07:32:38;40.92;38.21;43.81;;
60031;Laerm;45901;47.600;9.890;2023-04-21T07:35:07;40.68;38.52;42.76;;
60031;Laerm;45901;47.600;9.890;2023-04-21T07:37:36;40.96;38.37;44.47;;
60031;Laerm;45901;47.600;9.890;2023-04-21T07:40:06;40.88;38.67;42.98;;
60031;Laerm;45901;47.600;9.890;2023-04-21T07:42:34;40.44;38.21;42.29;;
60031;Laerm;45901;47.600;9.890;2023-04-21T07:45:02;40.44;38.21;42.22;;
60031;Laerm;45901;47.600;9.890;2023-04-21T07:47:29;40.55;38.37;44.12;;
60031;Laerm;45901;47.600;9.890;2023-04-21T07:49:56;40.45;37.12;42.47;;
60031;Laerm;45901;47.600;9.890;2023-04-21T07:52:24;40.44;38.37;42.71;;
60031;Laerm;45901;47.600;9.890;2023-04-21T07:54:53;40.36;38.05;44.15;;
60031;Laerm;45901;47.600;9.890;2023-04-21T07:57:21;40.21;37.52;41.82;;
60031;Laerm;45901;47.600;9.890;2023-04-21T07:59:48;40.35;38.37;43.04;;
60031;Laerm;45901;47.600;9.890;2023-04-21T08:02:16;40.74;38.05;46.20;;
60031;Laerm;45901;47.600;9.890;2023-04-21T08:04:44;40.64;38.37;43.63;;
60031;Laerm;45901;47.600;9.890;2023-04-21T08:07:11;40.53;38.37;43.44;;
60031;Laerm;45901;47.600;9.890;2023-04-21T08:09:40;40.49;38.21;44.47;;
60031;Laerm;45901;47.600;9.890;2023-04-21T08:12:09;40.51;38.05;44.58;;
60031;Laerm;45901;47.600;9.890;2023-04-21T08:14:36;40.64;38.21;45.01;;
60031;Laerm;45901;47.600;9.890;2023-04-21T08:17:03;40.52;38.05;46.69;;
60031;Laerm;45901;47.600;9.890;2023-04-21T08:19:31;40.81;38.05;46.13;;
60031;Laerm;45901;47.600;9.890;2023-04-21T08:21:58;41.61;38.81;47.00;;
60031;Laerm;45901;47.600;9.890;2023-04-21T08:24:26;42.24;39.08;48.94;;
60031;Laerm;45901;47.600;9.890;2023-04-21T08:26:53;41.93;38.67;46.84;;
60031;Laerm;45901;47.600;9.890;2023-04-21T08:29:22;40.22;37.88;41.96;;
60031;Laerm;45901;47.600;9.890;2023-04-21T08:31:49;40.36;37.88;44.23;;
60031;Laerm;45901;47.600;9.890;2023-04-21T08:34:17;40.50;37.52;45.86;;
60031;Laerm;45901;47.600;9.890;2023-04-21T08:36:45;42.41;38.52;52.54;;
60031;Laerm;45901;47.600;9.890;2023-04-21T08:39:13;42.07;38.81;52.79;;
60031;Laerm;45901;47.600;9.890;2023-04-21T08:41:41;42.85;39.70;51.15;;
60031;Laerm;45901;47.600;9.890;2023-04-21T08:44:09;41.83;39.08;45.66;;
60031;Laerm;45901;47.600;9.890;2023-04-21T08:46:39;42.27;38.37;49.35;;
60031;Laerm;45901;47.600;9.890;2023-04-21T08:49:08;40.63;38.05;43.68;;
60031;Laerm;45901;47.600;9.890;2023-04-21T08:51:36;41.11;37.88;48.51;;
60031;Laerm;45901;47.600;9.890;2023-04-21T08:54:07;40.22;37.88;42.98;;
60031;Laerm;45901;47.600;9.890;2023-04-21T08:56:34;40.56;37.70;43.14;;
60031;Laerm;45901;47.600;9.890;2023-04-21T08:59:02;40.18;37.52;57.23;;
60031;Laerm;45901;47.600;9.890;2023-04-21T09:01:30;41.64;37.70;60.13;;
60031;Laerm;45901;47.600;9.890;2023-04-21T09:04:15;40.50;37.88;55.12;;
60031;Laerm;45901;47.600;9.890;2023-04-21T09:06:43;40.63;37.88;54.00;;
60031;Laerm;45901;47.600;9.890;2023-04-21T09:09:11;40.34;37.32;44.11;;
60031;Laerm;45901;47.600;9.890;2023-04-21T09:11:38;40.48;37.70;43.49;;
60031;Laerm;45901;47.600;9.890;2023-04-21T09:14:06;40.34;37.70;42.74;;
60031;Laerm;45901;47.600;9.890;2023-04-21T09:16:34;40.85;38.05;46.48;;
60031;Laerm;45901;47.600;9.890;2023-04-21T09:19:01;40.39;37.52;44.69;;
60031;Laerm;45901;47.600;9.890;2023-04-21T09:21:30;40.06;37.12;44.65;;
60031;Laerm;45901;47.600;9.890;2023-04-21T09:24:04;41.87;37.52;56.82;;
60031;Laerm;45901;47.600;9.890;2023-04-21T09:26:32;41.99;38.05;57.15;;
60031;Laerm;45901;47.600;9.890;2023-04-21T09:28:59;41.89;37.70;56.03;;
60031;Laerm;45901;47.600;9.890;2023-04-21T09:31:34;43.21;38.67;57.31;;
60031;Laerm;45901;47.600;9.890;2023-04-21T09:34:10;42.33;37.70;54.99;;
60031;Laerm;45901;47.600;9.890;2023-04-21T09:36:45;42.98;37.70;58.16;;
60031;Laerm;45901;47.600;9.890;2023-04-21T09:39:12;41.51;38.02;55.14;;
60031;Laerm;45901;47.600;9.890;2023-04-21T09:41:40;42.40;37.32;67.53;;
60031;Laerm;45901;47.600;9.890;2023-04-21T09:44:07;42.78;37.52;65.42;;
60031;Laerm;45901;47.600;9.890;2023-04-21T09:46:35;41.47;37.52;57.80;;
60031;Laerm;45901;47.600;9.890;2023-04-21T09:49:03;41.99;38.05;56.41;;
60031;Laerm;45901;47.600;9.890;2023-04-21T09:51:31;42.03;37.70;59.47;;
60031;Laerm;45901;47.600;9.890;2023-04-21T09:54:05;42.94;38.05;66.46;;
60031;Laerm;45901;47.600;9.890;2023-04-21T09:56:40;48.28;37.32;71.21;;
60031;Laerm;45901;47.600;9.890;2023-04-21T09:59:15;41.26;37.12;54.22;;
60031;Laerm;45901;47.600;9.890;2023-04-21T10:01:45;42.21;37.70;58.95;;
60031;Laerm;45901;47.600;9.890;2023-04-21T10:04:14;42.40;37.88;55.75;;
60031;Laerm;45901;47.600;9.890;2023-04-21T10:06:44;42.32;37.32;55.98;;
60031;Laerm;45901;47.600;9.890;2023-04-21T10:09:14;42.22;37.52;56.67;;
60031;Laerm;45901;47.600;9.890;2023-04-21T10:11:42;42.66;37.88;60.21;;
60031;Laerm;45901;47.600;9.890;2023-04-21T10:14:10;43.21;37.52;59.21;;
60031;Laerm;45901;47.600;9.890;2023-04-21T10:16:37;43.32;38.67;59.02;;
60031;Laerm;45901;47.600;9.890;2023-04-21T10:19:23;43.05;37.87;56.10;;
60031;Laerm;45901;47.600;9.890;2023-04-21T10:21:54;41.67;37.32;56.02;;
60031;Laerm;45901;47.600;9.890;2023-04-21T10:24:23;41.87;37.52;58.55;;
60031;Laerm;45901;47.600;9.890;2023-04-21T10:26:50;42.58;37.70;55.64;;
60031;Laerm;45901;47.600;9.890;2023-04-21T10:29:28;43.15;37.32;61.30;;
60031;Laerm;45901;47.600;9.890;2023-04-21T10:31:56;41.26;35.94;54.22;;
60031;Laerm;45901;47.600;9.890;2023-04-21T10:34:34;43.37;37.32;62.78;;
60031;Laerm;45901;47.600;9.890;2023-04-21T10:37:18;42.69;37.32;54.19;;
60031;Laerm;45901;47.600;9.890;2023-04-21T10:39:53;44.16;37.87;58.01;;
60031;Laerm;45901;47.600;9.890;2023-04-21T10:42:27;42.51;36.91;52.87;;
60031;Laerm;45901;47.600;9.890;2023-04-21T10:45:09;44.04;40.13;58.62;;
60031;Laerm;45901;47.600;9.890;2023-04-21T10:47:44;42.10;37.70;50.64;;
60031;Laerm;45901;47.600;9.890;2023-04-21T10:50:24;40.76;37.32;47.79;;
60031;Laerm;45901;47.600;9.890;2023-04-21T10:53:07;40.81;36.45;57.20;;
60031;Laerm;45901;47.600;9.890;2023-04-21T10:55:38;40.81;36.45;49.68;;
60031;Laerm;45901;47.600;9.890;2023-04-21T10:58:08;40.34;36.91;51.70;;
60031;Laerm;45901;47.600;9.890;2023-04-21T11:00:36;41.08;36.91;48.77;;
60031;Laerm;45901;47.600;9.890;2023-04-21T11:03:06;42.55;37.52;52.18;;
60031;Laerm;45901;47.600;9.890;2023-04-21T11:05:36;40.21;36.91;47.55;;
60031;Laerm;45901;47.600;9.890;2023-04-21T11:08:10;42.20;36.91;58.02;;
60031;Laerm;45901;47.600;9.890;2023-04-21T11:10:48;41.28;36.20;59.16;;
60031;Laerm;45901;47.600;9.890;2023-04-21T11:13:16;44.47;36.69;66.10;;
60031;Laerm;45901;47.600;9.890;2023-04-21T11:15:56;40.99;36.77;57.93;;
60031;Laerm;45901;47.600;9.890;2023-04-21T11:18:39;44.16;36.69;62.36;;
60031;Laerm;45901;47.600;9.890;2023-04-21T11:21:12;46.11;36.45;71.89;;
60031;Laerm;45901;47.600;9.890;2023-04-21T11:23:49;51.12;36.91;75.22;;
60031;Laerm;45901;47.600;9.890;2023-04-21T11:26:33;46.50;36.45;66.91;;
60031;Laerm;45901;47.600;9.890;2023-04-21T11:29:04;52.50;36.45;74.19;;
60031;Laerm;45901;47.600;9.890;2023-04-21T11:31:32;50.06;36.45;75.18;;
60031;Laerm;45901;47.600;9.890;2023-04-21T11:34:00;45.53;35.66;69.14;;
60031;Laerm;45901;47.600;9.890;2023-04-21T11:36:32;53.04;36.91;76.91;;
60031;Laerm;45901;47.600;9.890;2023-04-21T11:39:03;47.33;36.91;72.32;;
60031;Laerm;45901;47.600;9.890;2023-04-21T11:41:35;39.71;35.94;46.25;;
60031;Laerm;45901;47.600;9.890;2023-04-21T11:44:02;41.99;36.45;60.84;;
60031;Laerm;45901;47.600;9.890;2023-04-21T11:46:29;39.98;36.20;51.62;;
60031;Laerm;45901;47.600;9.890;2023-04-21T11:48:59;39.52;35.66;47.61;;
60031;Laerm;45901;47.600;9.890;2023-04-21T11:51:32;39.90;35.66;44.87;;
60031;Laerm;45901;47.600;9.890;2023-04-21T11:54:00;39.75;36.45;47.96;;
60031;Laerm;45901;47.600;9.890;2023-04-21T11:56:28;39.58;36.45;44.80;;
60031;Laerm;45901;47.600;9.890;2023-04-21T11:58:57;40.77;37.32;47.77;;
60031;Laerm;45901;47.600;9.890;2023-04-21T12:01:26;40.84;36.45;49.53;;
60031;Laerm;45901;47.600;9.890;2023-04-21T12:03:54;39.75;35.94;43.54;;
60031;Laerm;45901;47.600;9.890;2023-04-21T12:06:23;39.88;36.91;42.88;;
60031;Laerm;45901;47.600;9.890;2023-04-21T12:08:56;39.80;36.69;45.45;;
60031;Laerm;45901;47.600;9.890;2023-04-21T12:11:27;39.68;35.94;43.04;;
60031;Laerm;45901;47.600;9.890;2023-04-21T12:13:57;40.32;37.12;44.15;;
60031;Laerm;45901;47.600;9.890;2023-04-21T12:16:26;40.31;37.35;49.73;;
60031;Laerm;45901;47.600;9.890;2023-04-21T12:18:55;40.24;37.52;44.73;;
60031;Laerm;45901;47.600;9.890;2023-04-21T12:21:26;40.37;37.70;47.34;;
60031;Laerm;45901;47.600;9.890;2023-04-21T12:23:55;40.07;35.94;44.69;;
60031;Laerm;45901;47.600;9.890;2023-04-21T12:26:22;42.34;37.12;55.11;;
60031;Laerm;45901;47.600;9.890;2023-04-21T12:28:50;39.37;35.94;45.36;;
60031;Laerm;45901;47.600;9.890;2023-04-21T12:31:19;41.34;37.32;50.01;;
60031;Laerm;45901;47.600;9.890;2023-04-21T12:33:46;42.91;37.70;52.88;;
60031;Laerm;45901;47.600;9.890;2023-04-21T12:36:13;41.71;36.91;52.26;;
60031;Laerm;45901;47.600;9.890;2023-04-21T12:38:41;41.07;36.69;49.40;;
60031;Laerm;45901;47.600;9.890;2023-04-21T12:41:09;40.41;36.91;50.92;;
60031;Laerm;45901;47.600;9.890;2023-04-21T12:43:37;40.42;37.12;47.88;;
60031;Laerm;45901;47.600;9.890;2023-04-21T12:46:04;40.93;37.88;50.61;;
60031;Laerm;45901;47.600;9.890;2023-04-21T12:48:33;40.73;37.87;43.58;;
60031;Laerm;45901;47.600;9.890;2023-04-21T12:51:00;41.22;36.69;47.68;;
60031;Laerm;45901;47.600;9.890;2023-04-21T12:53:28;41.02;37.88;56.44;;
60031;Laerm;45901;47.600;9.890;2023-04-21T12:55:55;41.07;37.88;46.55;;
60031;Laerm;45901;47.600;9.890;2023-04-21T12:58:22;40.47;35.66;44.31;;
60031;Laerm;45901;47.600;9.890;2023-04-21T13:00:50;41.15;36.45;50.85;;
60031;Laerm;45901;47.600;9.890;2023-04-21T13:03:17;40.55;36.45;46.89;;
60031;Laerm;45901;47.600;9.890;2023-04-21T13:05:46;41.88;37.52;46.66;;
60031;Laerm;45901;47.600;9.890;2023-04-21T13:08:13;41.61;37.52;45.36;;
60031;Laerm;45901;47.600;9.890;2023-04-21T13:10:41;40.20;37.32;43.14;;
60031;Laerm;45901;47.600;9.890;2023-04-21T13:13:09;41.08;36.45;47.76;;
60031;Laerm;45901;47.600;9.890;2023-04-21T13:15:36;42.59;36.45;49.36;;
60031;Laerm;45901;47.600;9.890;2023-04-21T13:18:05;42.22;37.52;49.29;;
60031;Laerm;45901;47.600;9.890;2023-04-21T13:20:32;42.42;36.91;49.35;;
60031;Laerm;45901;47.600;9.890;2023-04-21T13:23:01;42.69;37.35;50.41;;
60031;Laerm;45901;47.600;9.890;2023-04-21T13:25:29;43.46;38.81;51.23;;
60031;Laerm;45901;47.600;9.890;2023-04-21T13:27:56;42.58;36.91;50.21;;
60031;Laerm;45901;47.600;9.890;2023-04-21T13:30:23;42.57;37.12;49.06;;
60031;Laerm;45901;47.600;9.890;2023-04-21T13:32:51;41.67;36.91;48.42;;
60031;Laerm;45901;47.600;9.890;2023-04-21T13:35:18;40.24;36.20;45.89;;
60031;Laerm;45901;47.600;9.890;2023-04-21T13:37:46;39.92;36.20;52.51;;
60031;Laerm;45901;47.600;9.890;2023-04-21T13:40:16;40.76;35.66;55.30;;
60031;Laerm;45901;47.600;9.890;2023-04-21T13:42:43;40.97;37.52;45.20;;
60031;Laerm;45901;47.600;9.890;2023-04-21T13:45:11;40.20;36.69;43.72;;
60031;Laerm;45901;47.600;9.890;2023-04-21T13:47:39;40.67;36.45;48.28;;
60031;Laerm;45901;47.600;9.890;2023-04-21T13:50:07;42.16;36.91;51.54;;
60031;Laerm;45901;47.600;9.890;2023-04-21T13:52:35;41.24;37.52;45.80;;